Красная Поляна

Карта отелей и гостиниц, располагающихся рядом с аэропортом Красная Поляна :



Красная Поляна Белгородская область 50° 32' 56.8788" N, 37° 6' 51.48" E
Код аэродрома ИКАО: 
ZC5D
Код аэродрома RU: 
ЗЦ5Д
Координаты: 
N50.54913° E037.11430°
Превышение над уровнем моря : 
217
Основная полоса: 
09/27
Курс магнитный: 
089,5/269,5
Длина основной ВПП: 
445
Ширина основной ВПП: 
18
Покрытие основной ВПП: 
Твёрдое (асфальт)
Тип: 
Аэродром
Освещение ВПП: 
Нет
Класс аэродрома: 
Статус: 
Недействующий
Принадлежность: 
ГА
Сайт: 
E-mail аэродрома: 
Страна: 
Россия
Регион: 
Белгородская область
Город: 
Дополнительная информация: 
Площадка АХР.

Найти трансфер

С помощью этой формы Вы можете найти трансфер из аэропорта Красная Поляна в город, аэропорт или вокзал:

Карта места

Javascript is required to view this map.

Погода в аэропортах:

Авиационная погода в Ульяновске

Регион: 
Погода METAR: 
UWLW 042000Z 17002MPS 2200 BR NSC 14/14 Q1013 R20/290250 TEMPO 0300 FG VV002 RMK QFE754
Время наблюдения: 
2020-06-04T20:00:00Z
Температура C: 
14.0
Точка росы: 
14.0
Направление ветра: 
170
Скорость ветра: 
4
Метеорологическая видимость: 
1.37
Явления погоды: 
BR
Условия полета: 
IFR

Авиационная погода в Абакане

Регион: 
Погода METAR: 
UNAA 042000Z 33001MPS 1000 0250W R02/1000D PRFG NSC 06/06 Q1006 R02/290055 NOSIG RMK QFE732
Время наблюдения: 
2020-06-04T20:00:00Z
Температура C: 
6.0
Точка росы: 
6.0
Направление ветра: 
330
Скорость ветра: 
2
Метеорологическая видимость: 
0.62
Явления погоды: 
PRFG
Условия полета: 
LIFR
Аэропорт подробнее: 

Авиационная погода в Трабзоне

Регион: 
Погода METAR: 
LTCG 041950Z 29006KT 9999 -SHRA SCT035 BKN100 18/16 Q1018 NOSIG RMK RWY29 29005KT
Время наблюдения: 
2020-06-04T19:50:00Z
Температура C: 
18.0
Точка росы: 
16.0
Направление ветра: 
290
Скорость ветра: 
6
Метеорологическая видимость: 
6.21
Явления погоды: 
-SHRA
Условия полета: 
VFR

Авиационная погода в Елизово

Регион: 
Погода METAR: 
UHPP 042000Z 16002MPS 9999 -SHRA BKN004 OVC020CB 08/08 Q1019 R34L/290250 NOSIG RMK MT OBSC QFE760/1014
Время наблюдения: 
2020-06-04T20:00:00Z
Температура C: 
8.0
Точка росы: 
8.0
Направление ветра: 
160
Скорость ветра: 
4
Метеорологическая видимость: 
6.21
Явления погоды: 
-SHRA
Условия полета: 
LIFR
Аэропорт подробнее: